createdAt,value
2022-08-21T00:00:25.338Z,4.70
2022-08-21T00:03:04.447Z,6.10
2022-08-21T00:05:32.238Z,2.70
2022-08-21T00:07:59.267Z,3.60
2022-08-21T00:10:26.534Z,3.70
2022-08-21T00:12:53.784Z,5.30
2022-08-21T00:15:24.573Z,2.40
2022-08-21T00:17:51.650Z,2.50
2022-08-21T00:20:19.444Z,4.00
2022-08-21T00:22:47.069Z,3.90
2022-08-21T00:25:14.971Z,4.60
2022-08-21T00:27:43.727Z,2.70
2022-08-21T00:30:12.051Z,3.20
2022-08-21T00:32:49.959Z,3.90
2022-08-21T00:35:18.507Z,3.80
2022-08-21T00:37:45.562Z,2.50
2022-08-21T00:40:15.942Z,4.20
2022-08-21T00:42:44.451Z,4.10
2022-08-21T00:45:24.573Z,4.00
2022-08-21T00:47:52.331Z,2.70
2022-08-21T00:50:21.990Z,4.70
2022-08-21T00:52:51.711Z,4.50
2022-08-21T00:55:19.447Z,4.40
2022-08-21T00:57:48.695Z,3.90
2022-08-21T01:00:21.734Z,3.20
2022-08-21T01:02:48.789Z,5.60
2022-08-21T01:05:16.082Z,3.80
2022-08-21T01:07:43.491Z,4.90
2022-08-21T01:10:13.985Z,5.70
2022-08-21T01:12:52.736Z,5.40
2022-08-21T01:15:19.791Z,3.70
2022-08-21T01:17:46.835Z,5.50
2022-08-21T01:20:13.798Z,5.00
2022-08-21T01:22:40.834Z,2.90
2022-08-21T01:25:08.724Z,3.50
2022-08-21T01:27:35.944Z,3.50
2022-08-21T01:30:10.615Z,3.10
2022-08-21T01:32:37.864Z,2.50
2022-08-21T01:35:05.512Z,6.00
2022-08-21T01:37:32.567Z,2.50
2022-08-21T01:39:59.941Z,2.10
2022-08-21T01:42:27.243Z,2.00
2022-08-21T01:44:54.697Z,2.00
2022-08-21T01:47:23.384Z,2.00
2022-08-21T01:49:50.329Z,9.10
2022-08-21T01:52:17.791Z,2.30
2022-08-21T01:54:44.988Z,2.90
2022-08-21T01:57:13.008Z,2.10
2022-08-21T01:59:40.671Z,5.70
2022-08-21T02:02:07.853Z,1.70
2022-08-21T02:04:34.987Z,3.90
2022-08-21T02:07:02.040Z,5.70
2022-08-21T02:09:29.812Z,4.30
2022-08-21T02:11:57.791Z,4.20
2022-08-21T02:14:28.640Z,1.80
2022-08-21T02:17:09.053Z,3.40
2022-08-21T02:19:40.334Z,3.10
2022-08-21T02:22:10.205Z,2.10
2022-08-21T02:24:38.519Z,5.20
2022-08-21T02:27:25.956Z,3.70
2022-08-21T02:29:55.649Z,3.90
2022-08-21T02:32:22.788Z,2.60
2022-08-21T02:34:50.228Z,3.90
2022-08-21T02:37:17.210Z,3.00
2022-08-21T02:39:44.202Z,4.70
2022-08-21T02:42:11.369Z,4.80
2022-08-21T02:44:38.264Z,2.80
2022-08-21T02:47:05.625Z,5.90
2022-08-21T02:49:32.923Z,3.90
2022-08-21T02:52:00.482Z,3.90
2022-08-21T02:54:27.455Z,4.80
2022-08-21T02:56:54.605Z,4.10
2022-08-21T02:59:21.836Z,3.50
2022-08-21T03:01:48.975Z,6.00
2022-08-21T03:04:16.154Z,4.00
2022-08-21T03:06:44.202Z,10.10
2022-08-21T03:09:11.173Z,4.80
2022-08-21T03:11:38.299Z,6.50
2022-08-21T03:14:06.393Z,4.20
2022-08-21T03:16:35.211Z,4.90
2022-08-21T03:19:03.359Z,4.80
2022-08-21T03:21:30.270Z,5.10
2022-08-21T03:23:57.323Z,5.20
2022-08-21T03:26:26.709Z,3.80
2022-08-21T03:28:55.000Z,3.80
2022-08-21T03:31:22.972Z,5.20
2022-08-21T03:33:49.868Z,5.20
2022-08-21T03:36:17.071Z,4.90
2022-08-21T03:38:44.140Z,5.20
2022-08-21T03:41:11.268Z,8.80
2022-08-21T03:43:39.694Z,5.90
2022-08-21T03:46:06.930Z,5.40
2022-08-21T03:48:34.866Z,7.60
2022-08-21T03:51:02.012Z,10.40
2022-08-21T03:53:29.064Z,7.20
2022-08-21T03:55:56.107Z,5.30
2022-08-21T03:58:25.140Z,7.20
2022-08-21T04:00:53.989Z,6.90
2022-08-21T04:03:21.138Z,9.70
2022-08-21T04:05:48.289Z,6.30
2022-08-21T04:08:16.158Z,7.00
2022-08-21T04:10:43.729Z,10.10
2022-08-21T04:13:10.766Z,6.10
2022-08-21T04:15:37.745Z,8.20
2022-08-21T04:18:05.190Z,9.30
2022-08-21T04:20:32.239Z,8.10
2022-08-21T04:22:59.612Z,10.50
2022-08-21T04:25:26.845Z,14.20
2022-08-21T04:27:54.096Z,8.10
2022-08-21T04:30:21.554Z,7.00
2022-08-21T04:32:56.931Z,8.40
2022-08-21T04:35:24.666Z,7.20
2022-08-21T04:37:51.894Z,9.50
2022-08-21T04:40:20.061Z,6.60
2022-08-21T04:42:52.435Z,7.60
2022-08-21T04:45:23.270Z,6.80
2022-08-21T04:47:53.194Z,8.70
2022-08-21T04:50:21.925Z,8.50
2022-08-21T04:52:54.140Z,7.30
2022-08-21T04:55:21.423Z,11.10
2022-08-21T04:57:49.239Z,8.70
2022-08-21T05:00:19.861Z,11.80
2022-08-21T05:02:53.490Z,8.50
2022-08-21T05:05:20.569Z,6.80
2022-08-21T05:07:47.691Z,10.70
2022-08-21T05:10:15.190Z,9.10
2022-08-21T05:12:43.123Z,8.80
2022-08-21T05:15:13.690Z,9.00
2022-08-21T05:17:44.277Z,10.80
2022-08-21T05:20:21.065Z,10.50
2022-08-21T05:22:48.201Z,10.50
2022-08-21T05:25:15.359Z,9.00
2022-08-21T05:27:43.849Z,8.10
2022-08-21T05:30:11.634Z,6.50
2022-08-21T05:32:39.177Z,8.30
2022-08-21T05:35:06.930Z,5.60
2022-08-21T05:37:34.486Z,9.10
2022-08-21T05:40:04.652Z,12.00
2022-08-21T05:42:55.006Z,12.30
2022-08-21T05:45:41.653Z,7.70
2022-08-21T05:48:24.420Z,8.30
2022-08-21T05:50:52.808Z,7.90
2022-08-21T05:53:20.599Z,9.20
2022-08-21T05:55:47.560Z,5.30
2022-08-21T05:58:16.016Z,8.40
2022-08-21T06:00:43.964Z,10.20
2022-08-21T06:03:18.792Z,7.60
2022-08-21T06:05:46.806Z,9.60
2022-08-21T06:08:15.737Z,10.10
2022-08-21T06:10:43.340Z,8.80
2022-08-21T06:13:11.503Z,7.90
2022-08-21T06:15:39.313Z,31.10
2022-08-21T06:18:06.732Z,12.40
2022-08-21T06:20:33.960Z,6.90
2022-08-21T06:23:01.210Z,8.20
2022-08-21T06:25:28.770Z,8.30
2022-08-21T06:28:05.035Z,9.40
2022-08-21T06:30:32.143Z,9.50
2022-08-21T06:32:59.422Z,6.70
2022-08-21T06:35:27.302Z,6.10
2022-08-21T06:37:54.457Z,4.40
2022-08-21T06:40:21.721Z,8.70
2022-08-21T06:42:48.963Z,10.20
2022-08-21T06:45:16.418Z,6.00
2022-08-21T06:47:43.460Z,11.40
2022-08-21T06:50:10.747Z,9.50
2022-08-21T06:52:38.069Z,8.70
2022-08-21T06:55:09.548Z,7.20
2022-08-21T06:57:36.716Z,9.40
2022-08-21T07:00:07.819Z,11.10
2022-08-21T07:02:34.987Z,11.00
2022-08-21T07:05:02.226Z,9.50
2022-08-21T07:10:21.834Z,6.80
2022-08-21T07:12:49.302Z,10.90
2022-08-21T07:15:18.170Z,7.00
2022-08-21T07:17:45.308Z,6.40
2022-08-21T07:20:13.411Z,7.10
2022-08-21T07:22:40.739Z,5.90
2022-08-21T07:25:08.599Z,5.20
2022-08-21T07:27:35.648Z,6.20
2022-08-21T07:30:02.899Z,14.40
2022-08-21T07:32:30.565Z,8.70
2022-08-21T07:34:57.726Z,5.20
2022-08-21T07:37:25.398Z,5.90
2022-08-21T07:39:52.714Z,5.30
2022-08-21T07:42:19.887Z,4.30
2022-08-21T07:44:47.133Z,7.20
2022-08-21T07:47:16.673Z,4.70
2022-08-21T07:50:04.402Z,8.80
2022-08-21T07:52:33.874Z,6.10
2022-08-21T07:55:05.518Z,5.50
2022-08-21T07:57:33.842Z,7.20
2022-08-21T08:00:00.857Z,7.60
2022-08-21T08:02:30.194Z,5.40
2022-08-21T08:05:09.496Z,5.80
2022-08-21T08:07:36.651Z,4.90
2022-08-21T08:10:05.028Z,12.90
2022-08-21T08:12:32.168Z,8.40
2022-08-21T08:15:00.164Z,5.90
2022-08-21T08:17:27.725Z,4.60
2022-08-21T08:19:55.152Z,5.50
2022-08-21T08:22:25.032Z,7.40
2022-08-21T08:24:52.880Z,5.00
2022-08-21T08:27:20.605Z,3.00
2022-08-21T08:29:48.056Z,6.80
2022-08-21T08:32:15.107Z,2.70
2022-08-21T08:34:42.256Z,3.80
2022-08-21T08:37:10.017Z,4.10
2022-08-21T08:39:37.119Z,4.80
2022-08-21T08:42:32.150Z,4.20
2022-08-21T08:45:14.120Z,3.00
2022-08-21T08:47:46.770Z,5.40
2022-08-21T08:50:22.597Z,3.90
2022-08-21T08:53:01.010Z,4.20
2022-08-21T08:55:38.085Z,4.80
2022-08-21T08:58:05.350Z,2.90
2022-08-21T09:00:33.218Z,2.70
2022-08-21T09:03:01.641Z,5.50
2022-08-21T09:05:41.876Z,4.40
2022-08-21T09:08:34.314Z,5.30
2022-08-21T09:11:05.569Z,4.40
2022-08-21T09:13:58.037Z,3.10
2022-08-21T09:16:35.183Z,8.50
2022-08-21T09:19:28.840Z,3.80
2022-08-21T09:24:32.769Z,4.30
2022-08-21T09:27:10.085Z,5.10
2022-08-21T09:29:39.454Z,9.00
2022-08-21T09:32:16.612Z,5.20
2022-08-21T09:34:57.020Z,6.30
2022-08-21T09:37:24.263Z,6.90
2022-08-21T09:39:51.335Z,8.50
2022-08-21T09:42:30.156Z,9.80
2022-08-21T09:45:16.970Z,11.70
2022-08-21T09:47:45.320Z,11.60
2022-08-21T09:50:17.908Z,8.10
2022-08-21T09:52:47.502Z,9.60
2022-08-21T09:55:39.885Z,15.80
2022-08-21T09:58:09.070Z,10.50
2022-08-21T10:00:36.653Z,12.50
2022-08-21T10:03:19.918Z,14.00
2022-08-21T10:08:24.777Z,11.50
2022-08-21T10:10:57.253Z,13.10
2022-08-21T10:13:39.689Z,18.10
2022-08-21T10:16:34.694Z,13.10
2022-08-21T10:19:11.043Z,11.50
2022-08-21T10:21:59.170Z,9.90
2022-08-21T10:24:41.684Z,17.50
2022-08-21T10:27:33.168Z,12.70
2022-08-21T10:30:21.037Z,13.90
2022-08-21T10:33:03.483Z,13.30
2022-08-21T10:35:33.361Z,13.20
2022-08-21T10:38:55.384Z,13.10
2022-08-21T10:41:40.183Z,14.80
2022-08-21T10:44:36.291Z,17.00
2022-08-21T10:47:17.576Z,16.40
2022-08-21T10:50:24.355Z,15.10
2022-08-21T10:53:12.902Z,9.10
2022-08-21T10:55:49.677Z,17.80
2022-08-21T10:58:46.216Z,19.60
2022-08-21T11:01:17.200Z,17.50
2022-08-21T11:03:52.496Z,20.20
2022-08-21T11:06:23.290Z,13.60
2022-08-21T11:08:57.866Z,18.80
2022-08-21T11:11:35.974Z,12.00
2022-08-21T11:14:24.782Z,14.10
2022-08-21T11:17:01.806Z,17.30
2022-08-21T11:19:53.118Z,17.40
2022-08-21T11:22:25.245Z,14.90
2022-08-21T11:25:22.571Z,24.50
2022-08-21T11:27:56.223Z,18.20
2022-08-21T11:30:24.760Z,19.00
2022-08-21T11:33:14.098Z,17.10
2022-08-21T11:36:17.295Z,19.50
2022-08-21T11:38:53.165Z,13.30
2022-08-21T11:41:30.617Z,15.40
2022-08-21T11:44:19.946Z,18.10
2022-08-21T11:46:46.955Z,20.70
2022-08-21T11:49:38.714Z,22.60
2022-08-21T11:52:33.277Z,19.30
2022-08-21T11:55:08.107Z,18.80
2022-08-21T11:57:58.607Z,19.70
2022-08-21T12:00:39.889Z,23.10
2022-08-21T12:03:16.901Z,20.00
2022-08-21T12:05:47.450Z,15.60
2022-08-21T12:08:16.708Z,19.00
2022-08-21T12:10:48.613Z,17.50
2022-08-21T12:13:35.665Z,27.80
2022-08-21T12:16:14.342Z,18.60
2022-08-21T12:18:41.748Z,14.10
2022-08-21T12:21:26.537Z,18.30
2022-08-21T12:24:15.278Z,16.60
2022-08-21T12:26:56.381Z,16.90
2022-08-21T12:29:32.000Z,22.40
2022-08-21T12:32:03.889Z,9.50
2022-08-21T12:34:42.380Z,12.40
2022-08-21T12:37:36.969Z,13.00
2022-08-21T12:40:05.066Z,9.10
2022-08-21T12:42:43.857Z,14.30
2022-08-21T12:45:30.469Z,17.20
2022-08-21T12:47:58.742Z,13.10
2022-08-21T12:50:37.052Z,12.80
2022-08-21T12:53:20.577Z,18.10
2022-08-21T12:55:48.167Z,17.00
2022-08-21T12:58:20.280Z,14.60
2022-08-21T13:01:08.043Z,16.90
2022-08-21T13:03:39.047Z,19.10
2022-08-21T13:06:06.559Z,18.10
2022-08-21T13:08:39.227Z,11.10
2022-08-21T13:11:13.470Z,16.00
2022-08-21T13:13:46.785Z,17.90
2022-08-21T13:16:21.891Z,16.10
2022-08-21T13:18:58.339Z,21.50
2022-08-21T13:21:30.786Z,14.30
2022-08-21T13:24:40.734Z,13.30
2022-08-21T13:27:04.467Z,14.30
2022-08-21T13:29:33.413Z,17.70
2022-08-21T13:32:03.603Z,18.40
2022-08-21T13:34:33.218Z,17.00
2022-08-21T13:37:01.987Z,21.20
2022-08-21T13:39:28.997Z,18.60
2022-08-21T13:41:58.028Z,23.00
2022-08-21T13:44:32.102Z,15.80
2022-08-21T13:47:00.995Z,20.70
2022-08-21T13:49:31.476Z,16.40
2022-08-21T13:51:58.786Z,20.00
2022-08-21T13:54:29.816Z,18.60
2022-08-21T13:56:57.066Z,17.40
2022-08-21T13:59:34.618Z,19.10
2022-08-21T14:02:09.818Z,11.50
2022-08-21T14:04:45.076Z,17.90
2022-08-21T14:07:25.336Z,23.60
2022-08-21T14:09:52.403Z,22.00
2022-08-21T14:12:39.267Z,18.70
2022-08-21T14:15:07.290Z,13.40
2022-08-21T14:17:37.974Z,14.30
2022-08-21T14:20:12.699Z,20.10
2022-08-21T14:22:49.362Z,16.00
2022-08-21T14:25:20.225Z,17.20
2022-08-21T14:27:51.677Z,17.30
2022-08-21T14:30:23.203Z,17.20
2022-08-21T14:32:50.824Z,16.10
2022-08-21T14:35:23.536Z,19.30
2022-08-21T14:37:55.308Z,19.00
2022-08-21T14:40:23.569Z,15.70
2022-08-21T14:42:50.809Z,13.70
2022-08-21T14:45:23.832Z,16.40
2022-08-21T14:47:54.728Z,17.40
2022-08-21T14:50:21.765Z,25.40
2022-08-21T14:52:54.347Z,14.70
2022-08-21T14:55:21.534Z,16.70
2022-08-21T14:57:50.878Z,13.10
2022-08-21T15:00:20.655Z,17.60
2022-08-21T15:02:47.750Z,15.80
2022-08-21T15:05:16.530Z,17.70
2022-08-21T15:07:53.896Z,16.00
2022-08-21T15:10:21.248Z,14.60
2022-08-21T15:12:48.275Z,17.70
2022-08-21T15:15:17.655Z,11.90
2022-08-21T15:17:48.366Z,16.30
2022-08-21T15:20:15.900Z,23.50
2022-08-21T15:22:47.841Z,18.70
2022-08-21T15:25:15.489Z,19.20
2022-08-21T15:27:42.639Z,15.30
2022-08-21T15:30:10.326Z,14.70
2022-08-21T15:32:37.389Z,16.20
2022-08-21T15:35:05.115Z,16.80
2022-08-21T15:37:32.263Z,20.20
2022-08-21T15:39:59.509Z,19.70
2022-08-21T15:42:29.879Z,16.80
2022-08-21T15:44:57.200Z,13.80
2022-08-21T15:47:27.567Z,14.80
2022-08-21T15:49:54.738Z,11.70
2022-08-21T15:53:50.740Z,13.00
2022-08-21T15:56:22.600Z,17.30
2022-08-21T15:58:51.049Z,14.20
2022-08-21T16:01:18.558Z,13.00
2022-08-21T16:03:48.112Z,16.90
2022-08-21T16:06:15.085Z,14.40
2022-08-21T16:08:42.207Z,15.70
2022-08-21T16:11:12.152Z,13.20
2022-08-21T16:13:45.045Z,18.30
2022-08-21T16:16:12.668Z,15.50
2022-08-21T16:18:40.023Z,19.00
2022-08-21T16:21:07.691Z,21.00
2022-08-21T16:23:35.860Z,14.30
2022-08-21T16:26:03.145Z,15.30
2022-08-21T16:28:30.567Z,17.90
2022-08-21T16:30:57.668Z,17.90
2022-08-21T16:33:37.180Z,15.70
2022-08-21T16:36:05.546Z,12.70
2022-08-21T16:38:33.022Z,15.80
2022-08-21T16:41:08.239Z,11.60
2022-08-21T16:43:35.236Z,16.90
2022-08-21T16:46:03.050Z,20.50
2022-08-21T16:48:30.117Z,33.00
2022-08-21T16:50:57.860Z,59.90
2022-08-21T16:53:26.235Z,57.70
2022-08-21T16:55:54.024Z,35.60
2022-08-21T16:58:32.349Z,43.00
2022-08-21T17:01:00.920Z,70.90
2022-08-21T17:03:35.461Z,145.40
2022-08-21T17:06:03.104Z,81.90
2022-08-21T17:08:30.742Z,78.50
2022-08-21T17:10:58.853Z,39.40
2022-08-21T17:13:26.372Z,18.40
2022-08-21T17:15:53.727Z,14.20
2022-08-21T17:18:21.818Z,13.00
2022-08-21T17:20:49.257Z,18.10
2022-08-21T17:23:17.127Z,13.30
2022-08-21T17:25:45.970Z,13.40
2022-08-21T17:28:20.668Z,15.00
2022-08-21T17:30:47.789Z,11.00
2022-08-21T17:33:16.278Z,14.30
2022-08-21T17:35:43.387Z,14.60
2022-08-21T17:38:11.008Z,14.20
2022-08-21T17:40:42.809Z,12.90
2022-08-21T17:43:12.907Z,9.50
2022-08-21T17:45:41.516Z,18.30
2022-08-21T17:48:09.101Z,13.70
2022-08-21T17:50:36.354Z,10.30
2022-08-21T17:53:03.466Z,10.80
2022-08-21T17:55:31.605Z,12.70
2022-08-21T17:57:58.619Z,13.90
2022-08-21T18:00:25.979Z,9.30
2022-08-21T18:03:03.544Z,9.20
2022-08-21T18:05:31.028Z,11.60
2022-08-21T18:07:58.392Z,12.70
2022-08-21T18:10:26.152Z,10.20
2022-08-21T18:12:53.606Z,14.00
2022-08-21T18:15:21.165Z,10.20
2022-08-21T18:17:49.588Z,12.40
2022-08-21T18:20:18.337Z,10.20
2022-08-21T18:22:45.688Z,9.40
2022-08-21T18:25:12.941Z,10.90
2022-08-21T18:27:42.861Z,8.20
2022-08-21T18:30:10.669Z,12.40
2022-08-21T18:32:38.196Z,7.40
2022-08-21T18:35:06.192Z,10.90
2022-08-21T18:37:33.369Z,10.00
2022-08-21T18:40:00.834Z,7.90
2022-08-21T18:42:28.438Z,11.60
2022-08-21T18:45:00.377Z,8.40
2022-08-21T18:47:32.967Z,9.80
2022-08-21T18:49:59.973Z,9.70
2022-08-21T18:52:28.564Z,19.60
2022-08-21T18:54:55.966Z,9.60
2022-08-21T18:57:25.348Z,9.00
2022-08-21T18:59:52.341Z,7.80
2022-08-21T19:02:19.641Z,8.70
2022-08-21T19:04:46.691Z,4.40
2022-08-21T19:07:18.079Z,8.20
2022-08-21T19:10:07.485Z,6.60
2022-08-21T19:12:34.366Z,5.00
2022-08-21T19:15:01.400Z,7.30
2022-08-21T19:17:30.214Z,3.80
2022-08-21T19:19:59.818Z,5.70
2022-08-21T19:22:26.748Z,9.00
2022-08-21T19:24:54.334Z,6.00
2022-08-21T19:27:21.314Z,4.70
2022-08-21T19:29:50.368Z,4.30
2022-08-21T19:32:17.492Z,4.00
2022-08-21T19:34:45.667Z,6.40
2022-08-21T19:37:15.711Z,5.00
2022-08-21T19:39:47.035Z,4.70
2022-08-21T19:42:20.639Z,5.70
2022-08-21T19:44:50.962Z,13.00
2022-08-21T19:47:22.952Z,7.60
2022-08-21T19:49:59.157Z,5.70
2022-08-21T19:52:26.744Z,6.00
2022-08-21T19:54:54.100Z,4.70
2022-08-21T19:57:21.054Z,6.10
2022-08-21T19:59:48.296Z,5.70
2022-08-21T20:02:17.597Z,5.60
2022-08-21T20:07:33.096Z,7.30
2022-08-21T20:10:01.882Z,3.70
2022-08-21T20:12:29.337Z,4.30
2022-08-21T20:14:56.384Z,6.80
2022-08-21T20:17:24.789Z,8.30
2022-08-21T20:19:55.014Z,5.60
2022-08-21T20:22:24.149Z,5.10
2022-08-21T20:24:51.941Z,5.30
2022-08-21T20:27:22.348Z,6.40
2022-08-21T20:29:49.996Z,10.60
2022-08-21T20:32:17.340Z,9.60
2022-08-21T20:34:45.036Z,11.10
2022-08-21T20:37:12.643Z,8.60
2022-08-21T20:39:41.094Z,11.70
2022-08-21T20:42:09.414Z,6.70
2022-08-21T20:44:37.051Z,9.20
2022-08-21T20:47:06.539Z,7.00
2022-08-21T20:49:54.377Z,8.40
2022-08-21T20:52:21.322Z,9.50
2022-08-21T20:55:12.537Z,10.10
2022-08-21T20:58:29.722Z,13.70
2022-08-21T21:00:59.762Z,9.10
2022-08-21T21:03:37.878Z,8.70
2022-08-21T21:06:19.066Z,7.60
2022-08-21T21:08:54.360Z,10.00
2022-08-21T21:14:39.131Z,12.60
2022-08-21T21:17:08.290Z,15.20
2022-08-21T21:19:43.933Z,9.60
2022-08-21T21:22:33.199Z,12.10
2022-08-21T21:25:03.730Z,10.20
2022-08-21T21:27:41.113Z,11.90
2022-08-21T21:30:46.423Z,13.10
2022-08-21T21:33:16.086Z,7.90
2022-08-21T21:35:49.135Z,7.10
2022-08-21T21:38:22.866Z,9.80
2022-08-21T21:41:01.914Z,12.60
2022-08-21T21:43:36.954Z,12.00
2022-08-21T21:46:21.796Z,8.90
2022-08-21T21:48:55.006Z,9.10
2022-08-21T21:51:43.971Z,8.90
2022-08-21T21:54:33.032Z,7.60
2022-08-21T21:57:07.836Z,9.80
2022-08-21T21:59:35.705Z,15.00
2022-08-21T22:02:09.157Z,10.20
2022-08-21T22:04:51.949Z,13.30
2022-08-21T22:07:38.117Z,16.50
2022-08-21T22:10:33.029Z,11.50
2022-08-21T22:16:02.352Z,12.20
2022-08-21T22:18:36.657Z,14.10
2022-08-21T22:21:27.567Z,16.90
2022-08-21T22:23:57.086Z,10.10
2022-08-21T22:26:38.036Z,6.80
2022-08-21T22:29:12.649Z,11.10
2022-08-21T22:31:40.531Z,9.50
2022-08-21T22:34:18.053Z,9.30
2022-08-21T22:36:51.708Z,13.70
2022-08-21T22:39:39.212Z,21.70
2022-08-21T22:42:33.029Z,9.40
2022-08-21T22:45:02.372Z,15.50
2022-08-21T22:47:36.131Z,16.20
2022-08-21T22:50:20.078Z,8.20
2022-08-21T22:53:00.141Z,13.00
2022-08-21T22:55:34.050Z,13.10
2022-08-21T22:58:19.767Z,14.40
2022-08-21T23:00:53.559Z,12.30
2022-08-21T23:03:25.750Z,10.10
2022-08-21T23:05:52.844Z,16.20
2022-08-21T23:08:24.142Z,8.10
2022-08-21T23:11:00.560Z,11.90
2022-08-21T23:13:28.940Z,14.50
2022-08-21T23:16:20.792Z,8.20
2022-08-21T23:18:54.757Z,7.80
2022-08-21T23:21:44.160Z,11.40
2022-08-21T23:24:28.017Z,15.30
2022-08-21T23:27:22.813Z,9.80
2022-08-21T23:30:03.581Z,10.00
2022-08-21T23:32:40.715Z,13.20
2022-08-21T23:36:02.757Z,8.80
2022-08-21T23:38:44.907Z,17.70
2022-08-21T23:41:18.346Z,15.10
2022-08-21T23:44:17.308Z,9.00
2022-08-21T23:47:13.912Z,9.90
2022-08-21T23:49:47.418Z,6.90
2022-08-21T23:52:46.024Z,22.40
2022-08-21T23:55:22.387Z,21.60
2022-08-21T23:58:07.558Z,19.90
